Time;durP1;ratioP1;P1;durP2;ratioP2;P2;SDS_P1;SDS_P2;PMS_P1;PMS_P2;Temp;Humidity;BMP_temperature;BMP_pressure;BME280_temperature;BME280_humidity;BME280_pressure;Samples;Min_cycle;Max_cycle;Signal;HPM_P1;HPM_P2
2023/12/25 00:01:51;;;;;;;5.20;4.00;;;;;;;-147.86;100.00;-17609.17;105841;1257;64555;-55
2023/12/25 00:04:18;;;;;;;6.80;4.40;;;;;;;-147.86;100.00;-17609.17;105798;1253;72598;-48
2023/12/25 00:06:45;;;;;;;6.80;4.90;;;;;;;-147.86;100.00;-17609.17;105876;1257;60538;-54
2023/12/25 00:09:12;;;;;;;6.30;4.40;;;;;;;-147.86;100.00;-17609.17;105854;1253;60440;-50
2023/12/25 00:11:39;;;;;;;12.20;4.10;;;;;;;-147.86;100.00;-17609.17;105797;1257;73705;-53
2023/12/25 00:14:06;;;;;;;8.10;3.70;;;;;;;-147.86;100.00;-17609.17;105842;1258;64592;-52
2023/12/25 00:16:33;;;;;;;5.10;4.50;;;;;;;-147.86;100.00;-17609.17;105806;1253;72733;-50
2023/12/25 00:19:00;;;;;;;6.70;4.80;;;;;;;-147.86;100.00;-17609.17;105778;1257;60439;-50
2023/12/25 00:21:27;;;;;;;8.40;4.90;;;;;;;-147.86;100.00;-17609.17;105876;1253;60484;-55
2023/12/25 00:23:54;;;;;;;10.60;4.60;;;;;;;-147.86;100.00;-17609.17;105844;1253;73942;-54
2023/12/25 00:26:21;;;;;;;5.60;4.20;;;;;;;-147.86;100.00;-17609.17;105830;1256;64596;-54
2023/12/25 00:28:51;;;;;;;7.20;3.90;;;;;;;-147.86;100.00;-17609.17;105796;1253;72693;-49
2023/12/25 00:31:17;;;;;;;4.40;4.00;;;;;;;-147.86;100.00;-17609.17;105807;1258;60381;-55
2023/12/25 00:33:44;;;;;;;7.70;4.60;;;;;;;-147.86;100.00;-17609.17;105850;1256;60426;-52
2023/12/25 00:36:12;;;;;;;6.70;4.60;;;;;;;-147.86;100.00;-17609.17;105801;1257;73771;-51
2023/12/25 00:38:39;;;;;;;6.90;4.30;;;;;;;-147.86;100.00;-17609.17;105716;1259;64648;-52
2023/12/25 00:41:06;;;;;;;6.00;3.90;;;;;;;-147.86;100.00;-17609.17;105859;1253;72612;-53
2023/12/25 00:43:33;;;;;;;6.50;3.70;;;;;;;-147.86;100.00;-17609.17;105815;1257;61382;-56
2023/12/25 00:46:04;;;;;;;7.30;4.60;;;;;;;-147.86;100.00;-17609.17;105808;1253;60451;-52
2023/12/25 00:48:31;;;;;;;8.30;5.30;;;;;;;-147.86;100.00;-17609.17;105852;1257;73970;-50
2023/12/25 00:50:58;;;;;;;9.10;5.60;;;;;;;-147.86;100.00;-17609.17;105822;1257;64683;-49
2023/12/25 00:53:25;;;;;;;7.90;5.20;;;;;;;-147.86;100.00;-17609.17;105800;1253;72594;-53
2023/12/25 00:55:52;;;;;;;8.80;5.20;;;;;;;-147.86;100.00;-17609.17;105784;1258;61122;-54
2023/12/25 00:58:20;;;;;;;7.80;4.80;;;;;;;-147.86;100.00;-17609.17;105668;1253;60511;-48
2023/12/25 01:00:47;;;;;;;12.20;5.60;;;;;;;-147.86;100.00;-17609.17;105828;1257;73873;-53
2023/12/25 01:03:16;;;;;;;9.70;6.50;;;;;;;-147.86;100.00;-17609.17;105692;1258;63267;-54
2023/12/25 01:05:43;;;;;;;9.90;6.30;;;;;;;-147.86;100.00;-17609.17;105676;1253;72700;-54
2023/12/25 01:08:10;;;;;;;7.30;5.70;;;;;;;-147.86;100.00;-17609.17;105689;1260;60819;-54
2023/12/25 01:10:36;;;;;;;12.00;5.80;;;;;;;-147.86;100.00;-17609.17;105723;1253;60321;-56
2023/12/25 01:13:03;;;;;;;6.60;5.40;;;;;;;-147.86;100.00;-17609.17;105804;1253;73632;-54
2023/12/25 01:15:30;;;;;;;11.50;6.50;;;;;;;-147.86;100.00;-17609.17;105761;1256;64678;-50
2023/12/25 01:17:57;;;;;;;9.50;6.20;;;;;;;-147.86;100.00;-17609.17;105853;1253;72595;-52
2023/12/25 01:20:25;;;;;;;12.00;6.20;;;;;;;-147.86;100.00;-17609.17;105792;1257;60609;-52
2023/12/25 01:22:52;;;;;;;11.20;6.50;;;;;;;-147.86;100.00;-17609.17;105706;1258;60397;-51
2023/12/25 01:25:19;;;;;;;11.90;6.60;;;;;;;-147.86;100.00;-17609.17;105836;1253;73781;-50
2023/12/25 01:27:46;;;;;;;11.40;6.30;;;;;;;-147.86;100.00;-17609.17;105811;1257;64738;-51
2023/12/25 01:30:13;;;;;;;12.50;6.60;;;;;;;-147.86;100.00;-17609.17;105816;1257;72775;-54
2023/12/25 01:32:41;;;;;;;12.80;7.00;;;;;;;-147.86;100.00;-17609.17;105670;1258;60531;-51
2023/12/25 01:35:08;;;;;;;13.80;7.70;;;;;;;-147.86;100.00;-17609.17;105842;1253;60517;-53
2023/12/25 01:37:35;;;;;;;10.80;7.20;;;;;;;-147.86;100.00;-17609.17;105833;1253;73817;-55
2023/12/25 01:40:03;;;;;;;13.30;7.10;;;;;;;-147.86;100.00;-17609.17;105810;1256;64509;-54
2023/12/25 01:42:30;;;;;;;12.10;6.90;;;;;;;-147.86;100.00;-17609.17;105807;1257;72667;-51
2023/12/25 01:44:58;;;;;;;13.00;7.20;;;;;;;-147.86;100.00;-17609.17;105801;1253;60446;-57
2023/12/25 01:47:25;;;;;;;15.40;7.40;;;;;;;-147.86;100.00;-17609.17;105832;1257;60540;-51
2023/12/25 01:49:52;;;;;;;13.30;7.10;;;;;;;-147.86;100.00;-17609.17;105851;1254;73642;-55
2023/12/25 01:52:19;;;;;;;13.20;7.10;;;;;;;-147.86;100.00;-17609.17;105809;1257;64658;-54
2023/12/25 01:54:46;;;;;;;12.90;8.10;;;;;;;-147.86;100.00;-17609.17;105665;1255;72663;-50
2023/12/25 01:57:13;;;;;;;11.60;7.10;;;;;;;-147.86;100.00;-17609.17;105629;1258;60883;-54
2023/12/25 01:59:39;;;;;;;11.10;7.10;;;;;;;-147.86;100.00;-17609.17;105666;1253;60618;-50
2023/12/25 02:02:06;;;;;;;11.40;7.50;;;;;;;-147.86;100.00;-17609.17;105668;1255;73697;-57
2023/12/25 02:04:33;;;;;;;14.50;8.30;;;;;;;-147.86;100.00;-17609.17;105943;1256;64695;-53
2023/12/25 02:07:01;;;;;;;13.60;7.80;;;;;;;-147.86;100.00;-17609.17;105897;1253;72649;-49
2023/12/25 02:09:28;;;;;;;15.00;7.50;;;;;;;-147.86;100.00;-17609.17;105793;1257;61193;-54
2023/12/25 02:11:56;;;;;;;11.40;7.30;;;;;;;-147.86;100.00;-17609.17;105875;1255;60419;-50
2023/12/25 02:14:23;;;;;;;15.30;7.50;;;;;;;-147.86;100.00;-17609.17;105892;1257;73632;-53
2023/12/25 02:16:50;;;;;;;13.50;7.50;;;;;;;-147.86;100.00;-17609.17;105934;1257;64752;-52
2023/12/25 02:19:34;;;;;;;15.90;8.10;;;;;;;-147.86;100.00;-17609.17;105673;1253;72672;-54
2023/12/25 02:22:01;;;;;;;14.70;7.00;;;;;;;-147.86;100.00;-17609.17;105853;1256;61201;-56
2023/12/25 02:24:30;;;;;;;11.90;7.10;;;;;;;-147.86;100.00;-17609.17;105715;1253;60443;-55
2023/12/25 02:26:56;;;;;;;11.00;6.70;;;;;;;-147.86;100.00;-17609.17;105851;1256;73893;-51
2023/12/25 02:29:24;;;;;;;13.90;7.20;;;;;;;-147.86;100.00;-17609.17;105861;1257;64647;-51
2023/12/25 02:31:50;;;;;;;10.20;7.10;;;;;;;-147.86;100.00;-17609.17;105844;1258;72657;-47
2023/12/25 02:34:17;;;;;;;14.20;7.30;;;;;;;-147.86;100.00;-17609.17;105803;1257;60399;-52
2023/12/25 02:36:44;;;;;;;14.80;7.50;;;;;;;-147.86;100.00;-17609.17;105830;1256;60462;-50
2023/12/25 02:39:12;;;;;;;15.20;7.60;;;;;;;-147.86;100.00;-17609.17;105881;1256;73857;-49
2023/12/25 02:41:39;;;;;;;15.20;8.00;;;;;;;-147.86;100.00;-17609.17;105855;1257;64827;-50
2023/12/25 02:44:05;;;;;;;12.20;7.90;;;;;;;-147.86;100.00;-17609.17;105883;1258;72549;-53
2023/12/25 02:46:33;;;;;;;12.30;7.70;;;;;;;-147.86;100.00;-17609.17;105850;1258;60559;-53
2023/12/25 02:48:59;;;;;;;15.00;8.60;;;;;;;-147.86;100.00;-17609.17;105814;1257;60782;-55
2023/12/25 02:51:27;;;;;;;13.90;7.80;;;;;;;-147.86;100.00;-17609.17;105784;1258;73841;-52
2023/12/25 02:53:54;;;;;;;16.50;8.80;;;;;;;-147.86;100.00;-17609.17;105876;1258;64737;-55
2023/12/25 02:56:21;;;;;;;12.70;7.90;;;;;;;-147.86;100.00;-17609.17;105683;1257;72702;-56
2023/12/25 02:58:48;;;;;;;17.00;8.40;;;;;;;-147.86;100.00;-17609.17;105682;1257;60510;-52
2023/12/25 03:01:15;;;;;;;24.80;8.50;;;;;;;-147.86;100.00;-17609.17;105913;1257;60540;-52
2023/12/25 03:03:41;;;;;;;14.40;8.70;;;;;;;-147.86;100.00;-17609.17;105864;1253;73682;-54
2023/12/25 03:06:09;;;;;;;17.40;8.50;;;;;;;-147.86;100.00;-17609.17;105642;1258;64552;-53
2023/12/25 03:08:36;;;;;;;17.70;9.00;;;;;;;-147.86;100.00;-17609.17;105832;1257;72603;-55
2023/12/25 03:11:03;;;;;;;11.60;8.40;;;;;;;-147.86;100.00;-17609.17;105858;1266;61168;-54
2023/12/25 03:13:30;;;;;;;17.10;9.10;;;;;;;-147.86;100.00;-17609.17;105743;1255;60416;-54
2023/12/25 03:15:56;;;;;;;15.50;8.60;;;;;;;-147.86;100.00;-17609.17;105676;1258;73750;-55
2023/12/25 03:18:23;;;;;;;25.00;10.00;;;;;;;-147.86;100.00;-17609.17;105730;1257;64640;-56
2023/12/25 03:20:50;;;;;;;16.80;8.80;;;;;;;-147.86;100.00;-17609.17;105884;1266;72442;-55
2023/12/25 03:23:18;;;;;;;16.60;8.80;;;;;;;-147.86;100.00;-17609.17;105898;1257;61077;-53
2023/12/25 03:25:44;;;;;;;19.00;9.60;;;;;;;-147.86;100.00;-17609.17;105883;1257;60464;-59
2023/12/25 03:28:12;;;;;;;15.50;9.00;;;;;;;-147.86;100.00;-17609.17;105949;1254;73702;-55
2023/12/25 03:30:39;;;;;;;15.40;9.00;;;;;;;-147.86;100.00;-17609.17;105890;1256;64529;-52
2023/12/25 03:33:07;;;;;;;17.50;9.10;;;;;;;-147.86;100.00;-17609.17;105857;1256;72625;-58
2023/12/25 03:35:35;;;;;;;15.80;8.90;;;;;;;-147.86;100.00;-17609.17;105844;1257;61110;-50
2023/12/25 03:38:02;;;;;;;17.30;9.30;;;;;;;-147.86;100.00;-17609.17;105855;1255;60444;-54
2023/12/25 03:40:30;;;;;;;19.00;9.70;;;;;;;-147.86;100.00;-17609.17;105880;1257;73803;-59
2023/12/25 03:43:01;;;;;;;15.40;9.20;;;;;;;-147.86;100.00;-17609.17;105806;1257;64666;-55
2023/12/25 03:45:28;;;;;;;17.10;9.10;;;;;;;-147.86;100.00;-17609.17;105864;1256;72637;-52
2023/12/25 03:47:55;;;;;;;14.70;9.00;;;;;;;-147.86;100.00;-17609.17;105846;1266;60284;-55
2023/12/25 03:50:23;;;;;;;14.60;8.20;;;;;;;-147.86;100.00;-17609.17;105888;1256;60544;-51
2023/12/25 03:52:51;;;;;;;16.40;7.70;;;;;;;-147.86;100.00;-17609.17;105901;1256;74038;-47
2023/12/25 03:55:18;;;;;;;18.30;9.40;;;;;;;-147.86;100.00;-17609.17;105893;1257;64608;-51
2023/12/25 03:57:45;;;;;;;12.00;8.10;;;;;;;-147.86;100.00;-17609.17;105844;1257;72605;-51
2023/12/25 04:00:13;;;;;;;15.00;8.60;;;;;;;-147.86;100.00;-17609.17;105895;1266;60531;-50
2023/12/25 04:02:41;;;;;;;15.80;8.00;;;;;;;-147.86;100.00;-17609.17;105890;1257;60423;-49
2023/12/25 04:05:09;;;;;;;13.80;8.30;;;;;;;-147.86;100.00;-17609.17;105665;1257;322603;-54
2023/12/25 04:07:36;;;;;;;15.70;7.20;;;;;;;-147.86;100.00;-17609.17;105913;1257;63364;-54
2023/12/25 04:11:45;;;;;;;;;;;;;;;-147.86;100.00;-17609.17;102688;1292;602436;-51
2023/12/25 04:14:12;;;;;;;15.80;7.60;;;;;;;-147.86;100.00;-17609.17;105202;1264;59333;-50
2023/12/25 04:16:39;;;;;;;14.20;7.90;;;;;;;-147.86;100.00;-17609.17;105280;1263;60156;-51
2023/12/25 04:19:07;;;;;;;13.60;6.70;;;;;;;-147.86;100.00;-17609.17;105233;1264;72104;-53
2023/12/25 04:21:34;;;;;;;15.10;7.60;;;;;;;-147.86;100.00;-17609.17;105206;1264;63527;-55
2023/12/25 04:24:01;;;;;;;17.90;6.80;;;;;;;-147.86;100.00;-17609.17;105053;1269;208581;-55
2023/12/25 04:26:28;;;;;;;14.80;7.40;;;;;;;-147.86;100.00;-17609.17;105266;1267;61043;-56
2023/12/25 04:28:55;;;;;;;11.50;6.80;;;;;;;-147.86;100.00;-17609.17;105255;1261;60257;-52
2023/12/25 04:31:22;;;;;;;11.90;6.20;;;;;;;-147.86;100.00;-17609.17;105180;1261;72256;-54
2023/12/25 04:33:49;;;;;;;14.50;5.90;;;;;;;-147.86;100.00;-17609.17;105226;1267;64577;-53
2023/12/25 04:36:16;;;;;;;14.60;5.70;;;;;;;-147.86;100.00;-17609.17;105250;1266;71625;-55
2023/12/25 04:38:43;;;;;;;11.10;5.60;;;;;;;-147.86;100.00;-17609.17;105310;1266;59707;-55
2023/12/25 04:41:11;;;;;;;9.80;6.00;;;;;;;-147.86;100.00;-17609.17;105257;1264;60470;-52
2023/12/25 04:43:39;;;;;;;14.00;7.00;;;;;;;-147.86;100.00;-17609.17;105241;1264;72967;-53
2023/12/25 04:46:08;;;;;;;14.50;6.50;;;;;;;-147.86;100.00;-17609.17;105265;1266;64678;-50
2023/12/25 04:48:35;;;;;;;15.70;7.00;;;;;;;-147.86;100.00;-17609.17;105899;1254;72641;-49
2023/12/25 04:51:02;;;;;;;12.60;5.90;;;;;;;-147.86;100.00;-17609.17;105919;1255;59538;-50
2023/12/25 04:53:31;;;;;;;17.50;6.10;;;;;;;-147.86;100.00;-17609.17;105755;1254;60140;-50
2023/12/25 04:55:58;;;;;;;13.70;6.10;;;;;;;-147.86;100.00;-17609.17;105870;1257;71934;-51
2023/12/25 04:58:25;;;;;;;15.80;6.60;;;;;;;-147.86;100.00;-17609.17;105913;1257;64660;-52
2023/12/25 05:00:52;;;;;;;17.30;7.40;;;;;;;-147.86;100.00;-17609.17;105835;1254;72643;-51
2023/12/25 05:03:21;;;;;;;14.90;7.70;;;;;;;-147.86;100.00;-17609.17;105804;1257;61047;-53
2023/12/25 05:05:48;;;;;;;15.60;5.80;;;;;;;-147.86;100.00;-17609.17;105885;1254;60224;-51
2023/12/25 05:08:16;;;;;;;24.80;7.10;;;;;;;-147.86;100.00;-17609.17;105679;1260;73433;-52
2023/12/25 05:10:43;;;;;;;11.70;6.30;;;;;;;-147.86;100.00;-17609.17;105797;1258;64611;-53
2023/12/25 05:13:09;;;;;;;10.80;6.40;;;;;;;-147.86;100.00;-17609.17;105897;1254;72976;-55
2023/12/25 05:15:37;;;;;;;10.50;7.10;;;;;;;-147.86;100.00;-17609.17;105884;1257;61146;-54
2023/12/25 05:18:04;;;;;;;19.20;7.10;;;;;;;-147.86;100.00;-17609.17;105896;1254;60348;-53
2023/12/25 05:20:31;;;;;;;15.40;7.60;;;;;;;-147.86;100.00;-17609.17;105856;1254;72997;-55
2023/12/25 05:22:58;;;;;;;14.20;6.70;;;;;;;-147.86;100.00;-17609.17;105886;1254;64650;-50
2023/12/25 05:25:25;;;;;;;11.50;6.00;;;;;;;-147.86;100.00;-17609.17;105865;1254;72582;-50
2023/12/25 05:27:51;;;;;;;17.90;7.30;;;;;;;-147.86;100.00;-17609.17;105852;1257;59691;-48
2023/12/25 05:30:19;;;;;;;13.60;6.10;;;;;;;-147.86;100.00;-17609.17;105874;1257;59757;-52
2023/12/25 05:32:46;;;;;;;18.80;6.30;;;;;;;-147.86;100.00;-17609.17;105842;1254;72914;-54
2023/12/25 05:35:13;;;;;;;13.00;5.90;;;;;;;-147.86;100.00;-17609.17;105861;1254;64681;-55
2023/12/25 05:37:40;;;;;;;12.10;5.50;;;;;;;-147.86;100.00;-17609.17;105856;1257;72630;-51
2023/12/25 05:40:07;;;;;;;10.30;4.80;;;;;;;-147.86;100.00;-17609.17;105857;1257;59712;-55
2023/12/25 05:42:34;;;;;;;8.70;4.50;;;;;;;-147.86;100.00;-17609.17;105872;1257;59813;-55
2023/12/25 05:45:02;;;;;;;10.10;4.90;;;;;;;-147.86;100.00;-17609.17;105920;1257;72912;-51
2023/12/25 05:47:29;;;;;;;11.80;5.40;;;;;;;-147.86;100.00;-17609.17;105888;1254;63690;-54
2023/12/25 05:49:56;;;;;;;11.80;4.60;;;;;;;-147.86;100.00;-17609.17;105847;1254;72298;-47
2023/12/25 05:52:23;;;;;;;8.50;4.00;;;;;;;-147.86;100.00;-17609.17;105928;1257;61113;-47
2023/12/25 05:54:51;;;;;;;10.20;3.80;;;;;;;-147.86;100.00;-17609.17;105812;1254;60151;-53
2023/12/25 05:57:18;;;;;;;6.80;3.90;;;;;;;-147.86;100.00;-17609.17;105920;1256;73029;-51
2023/12/25 05:59:45;;;;;;;10.10;4.80;;;;;;;-147.86;100.00;-17609.17;105896;1257;64794;-54
2023/12/25 06:02:13;;;;;;;7.00;3.40;;;;;;;-147.86;100.00;-17609.17;105901;1254;72494;-55
2023/12/25 06:04:40;;;;;;;12.30;3.30;;;;;;;-147.86;100.00;-17609.17;105828;1257;61207;-51
2023/12/25 06:07:07;;;;;;;7.80;3.60;;;;;;;-147.86;100.00;-17609.17;105903;1257;60271;-54
2023/12/25 06:09:33;;;;;;;6.70;3.60;;;;;;;-147.86;100.00;-17609.17;105831;1254;71916;-53
2023/12/25 06:12:00;;;;;;;5.60;3.90;;;;;;;-147.86;100.00;-17609.17;105901;1253;63223;-50
2023/12/25 06:14:27;;;;;;;6.60;3.70;;;;;;;-147.86;100.00;-17609.17;105823;1254;72291;-50
2023/12/25 06:16:56;;;;;;;3.30;3.00;;;;;;;-147.86;100.00;-17609.17;106154;1250;59775;-56
2023/12/25 06:19:24;;;;;;;5.60;3.00;;;;;;;-147.86;100.00;-17609.17;106079;1252;59646;-52
2023/12/25 06:21:51;;;;;;;8.40;3.00;;;;;;;-147.86;100.00;-17609.17;106043;1251;73050;-54
2023/12/25 06:24:18;;;;;;;4.20;3.10;;;;;;;-147.86;100.00;-17609.17;106032;1254;64477;-50
2023/12/25 06:26:45;;;;;;;12.60;3.10;;;;;;;-147.86;100.00;-17609.17;106065;1251;72594;-52
2023/12/25 06:29:12;;;;;;;6.30;3.10;;;;;;;-147.86;100.00;-17609.17;106077;1254;60998;-50
2023/12/25 06:31:39;;;;;;;6.30;2.90;;;;;;;-147.86;100.00;-17609.17;106060;1251;60126;-54
2023/12/25 06:34:06;;;;;;;5.00;2.90;;;;;;;-147.86;100.00;-17609.17;106081;1249;72843;-57
2023/12/25 06:36:33;;;;;;;5.50;3.00;;;;;;;-147.86;100.00;-17609.17;106206;1253;64555;-54
2023/12/25 06:39:00;;;;;;;3.90;3.00;;;;;;;-147.86;100.00;-17609.17;105997;1251;72479;-52
2023/12/25 06:41:26;;;;;;;4.50;2.60;;;;;;;-147.86;100.00;-17609.17;106028;1254;60976;-53
2023/12/25 06:43:53;;;;;;;7.20;3.10;;;;;;;-147.86;100.00;-17609.17;106055;1251;60168;-50
2023/12/25 06:46:20;;;;;;;3.40;2.50;;;;;;;-147.86;100.00;-17609.17;106054;1251;73004;-54
2023/12/25 06:48:47;;;;;;;5.00;2.90;;;;;;;-147.86;100.00;-17609.17;106079;1254;64798;-52
2023/12/25 06:51:14;;;;;;;6.50;2.60;;;;;;;-147.86;100.00;-17609.17;106015;1254;72686;-52
2023/12/25 06:53:41;;;;;;;4.60;2.40;;;;;;;-147.86;100.00;-17609.17;106046;1253;61322;-50
2023/12/25 06:56:08;;;;;;;3.00;2.70;;;;;;;-147.86;100.00;-17609.17;106003;1251;60256;-51
2023/12/25 06:58:35;;;;;;;2.90;2.50;;;;;;;-147.86;100.00;-17609.17;106026;1251;73148;-52
2023/12/25 07:01:06;;;;;;;3.50;2.70;;;;;;;-147.86;100.00;-17609.17;106095;1250;64873;-53
2023/12/25 07:03:33;;;;;;;3.60;2.60;;;;;;;-147.86;100.00;-17609.17;106037;1250;72636;-50
2023/12/25 07:06:01;;;;;;;6.00;3.10;;;;;;;-147.86;100.00;-17609.17;106041;1251;60059;-51
2023/12/25 07:08:28;;;;;;;2.50;2.20;;;;;;;-147.86;100.00;-17609.17;106061;1251;60287;-56
2023/12/25 07:10:55;;;;;;;3.00;2.30;;;;;;;-147.86;100.00;-17609.17;106030;1251;72986;-51
2023/12/25 07:13:22;;;;;;;5.50;2.80;;;;;;;-147.86;100.00;-17609.17;106212;1249;64529;-52
2023/12/25 07:15:49;;;;;;;2.70;2.50;;;;;;;-147.86;100.00;-17609.17;105998;1251;72691;-55
2023/12/25 07:18:16;;;;;;;5.50;3.10;;;;;;;-147.86;100.00;-17609.17;106021;1253;59599;-51
2023/12/25 07:20:43;;;;;;;3.60;2.90;;;;;;;-147.86;100.00;-17609.17;106122;1251;60169;-51
2023/12/25 07:23:10;;;;;;;3.60;3.00;;;;;;;-147.86;100.00;-17609.17;106054;1251;72964;-52
2023/12/25 07:25:37;;;;;;;5.20;3.60;;;;;;;-147.86;100.00;-17609.17;106053;1254;64540;-51
2023/12/25 07:28:04;;;;;;;3.10;2.80;;;;;;;-147.86;100.00;-17609.17;106035;1253;72547;-52
2023/12/25 07:30:31;;;;;;;7.60;3.80;;;;;;;-147.86;100.00;-17609.17;106051;1251;60868;-52
2023/12/25 07:32:59;;;;;;;4.00;3.60;;;;;;;-147.86;100.00;-17609.17;106024;1251;60114;-58
2023/12/25 07:35:26;;;;;;;10.20;3.50;;;;;;;-147.86;100.00;-17609.17;106030;1253;72947;-52
2023/12/25 07:37:54;;;;;;;6.30;3.30;;;;;;;-147.86;100.00;-17609.17;106024;1250;64731;-52
2023/12/25 07:40:21;;;;;;;7.90;3.60;;;;;;;-147.86;100.00;-17609.17;106072;1254;72579;-49
2023/12/25 07:42:52;;;;;;;7.30;3.70;;;;;;;-147.86;100.00;-17609.17;105979;1253;60782;-49
2023/12/25 07:45:19;;;;;;;10.50;4.50;;;;;;;-147.86;100.00;-17609.17;106078;1252;60320;-56
2023/12/25 07:47:46;;;;;;;7.70;4.00;;;;;;;-147.86;100.00;-17609.17;106017;1251;71761;-51
2023/12/25 07:50:13;;;;;;;6.70;4.30;;;;;;;-147.86;100.00;-17609.17;106061;1251;64716;-50
2023/12/25 07:52:40;;;;;;;6.90;3.90;;;;;;;-147.86;100.00;-17609.17;106056;1250;72452;-53
2023/12/25 07:55:07;;;;;;;6.00;3.90;;;;;;;-147.86;100.00;-17609.17;106074;1253;61006;-51
2023/12/25 07:57:34;;;;;;;5.80;4.00;;;;;;;-147.86;100.00;-17609.17;105992;1251;60402;-49
2023/12/25 08:00:01;;;;;;;8.10;4.50;;;;;;;-147.86;100.00;-17609.17;106110;1251;72927;-51
2023/12/25 08:02:38;;;;;;;5.20;4.00;;;;;;;-147.86;100.00;-17609.17;106019;1254;64728;-55
2023/12/25 08:05:06;;;;;;;5.60;4.10;;;;;;;-147.86;100.00;-17609.17;106027;1254;72731;-52
2023/12/25 08:07:33;;;;;;;6.40;4.50;;;;;;;-147.86;100.00;-17609.17;106074;1253;59647;-55
2023/12/25 08:10:00;;;;;;;5.30;4.30;;;;;;;-147.86;100.00;-17609.17;106015;1250;60180;-52
2023/12/25 08:12:27;;;;;;;6.00;4.40;;;;;;;-147.86;100.00;-17609.17;106056;1254;72976;-49
2023/12/25 08:14:54;;;;;;;6.80;4.00;;;;;;;-147.86;100.00;-17609.17;106081;1254;64743;-49
2023/12/25 08:17:20;;;;;;;5.50;4.10;;;;;;;-147.86;100.00;-17609.17;106049;1251;72320;-50
2023/12/25 08:19:48;;;;;;;6.80;4.10;;;;;;;-147.86;100.00;-17609.17;106061;1253;60425;-49
2023/12/25 08:22:15;;;;;;;8.50;5.00;;;;;;;-147.86;100.00;-17609.17;106074;1254;60414;-50
2023/12/25 08:24:42;;;;;;;9.10;4.70;;;;;;;-147.86;100.00;-17609.17;106004;1251;73754;-53
2023/12/25 08:27:09;;;;;;;8.30;4.90;;;;;;;-147.86;100.00;-17609.17;106067;1253;64603;-52
2023/12/25 08:29:36;;;;;;;6.00;4.50;;;;;;;-147.86;100.00;-17609.17;105998;1251;72407;-54
2023/12/25 08:32:06;;;;;;;12.20;5.40;;;;;;;-147.86;100.00;-17609.17;106016;1254;61117;-50
2023/12/25 08:34:37;;;;;;;6.00;5.00;;;;;;;-147.86;100.00;-17609.17;106087;1252;60501;-50
2023/12/25 08:37:04;;;;;;;10.40;5.40;;;;;;;-147.86;100.00;-17609.17;106060;1251;72738;-55
2023/12/25 08:39:31;;;;;;;9.40;5.30;;;;;;;-147.86;100.00;-17609.17;106027;1254;64814;-48
2023/12/25 08:42:00;;;;;;;8.60;5.30;;;;;;;-147.86;100.00;-17609.17;105975;1251;72653;-49
2023/12/25 08:44:28;;;;;;;8.00;5.10;;;;;;;-147.86;100.00;-17609.17;106117;1250;60661;-46
2023/12/25 08:46:55;;;;;;;10.70;5.10;;;;;;;-147.86;100.00;-17609.17;106067;1250;61041;-52
2023/12/25 08:49:21;;;;;;;11.50;6.20;;;;;;;-147.86;100.00;-17609.17;106052;1251;72817;-47
2023/12/25 08:51:49;;;;;;;9.80;6.30;;;;;;;-147.86;100.00;-17609.17;106093;1253;64644;-53
2023/12/25 08:54:16;;;;;;;9.70;6.10;;;;;;;-147.86;100.00;-17609.17;106065;1254;71480;-51
2023/12/25 08:56:43;;;;;;;12.10;6.20;;;;;;;-147.86;100.00;-17609.17;106043;1253;60430;-51
2023/12/25 08:59:10;;;;;;;16.80;7.20;;;;;;;-147.86;100.00;-17609.17;106061;1250;60431;-52
2023/12/25 09:01:37;;;;;;;10.20;6.40;;;;;;;-147.86;100.00;-17609.17;106062;1251;73593;-48
2023/12/25 09:04:04;;;;;;;11.90;6.70;;;;;;;-147.86;100.00;-17609.17;105961;1256;64681;-55
2023/12/25 09:06:31;;;;;;;9.00;6.40;;;;;;;-147.86;100.00;-17609.17;106034;1251;72511;-52
2023/12/25 09:08:58;;;;;;;9.90;6.40;;;;;;;-147.86;100.00;-17609.17;106087;1253;61117;-52
2023/12/25 09:11:25;;;;;;;10.30;6.90;;;;;;;-147.86;100.00;-17609.17;106072;1251;60465;-49
2023/12/25 09:13:53;;;;;;;8.10;5.90;;;;;;;-147.86;100.00;-17609.17;106071;1250;73793;-48
2023/12/25 09:16:20;;;;;;;10.30;6.40;;;;;;;-147.86;100.00;-17609.17;106079;1254;64963;-51
2023/12/25 09:18:46;;;;;;;13.10;7.30;;;;;;;-147.86;100.00;-17609.17;106043;1254;72618;-49
2023/12/25 09:21:17;;;;;;;13.30;7.40;;;;;;;-147.86;100.00;-17609.17;106091;1253;60746;-49
2023/12/25 09:23:43;;;;;;;10.50;6.40;;;;;;;-147.86;100.00;-17609.17;105938;1251;60421;-53
2023/12/25 09:26:17;;;;;;;11.60;6.40;;;;;;;-147.86;100.00;-17609.17;106005;1251;73667;-54
2023/12/25 09:28:44;;;;;;;8.80;6.10;;;;;;;-147.86;100.00;-17609.17;106061;1251;63719;-51
2023/12/25 09:31:12;;;;;;;10.30;6.20;;;;;;;-147.86;100.00;-17609.17;106086;1252;72827;-48
2023/12/25 09:33:39;;;;;;;11.90;6.50;;;;;;;-147.86;100.00;-17609.17;106116;1254;60347;-52
2023/12/25 09:36:07;;;;;;;11.10;6.50;;;;;;;-147.86;100.00;-17609.17;106102;1251;60705;-55
2023/12/25 09:38:34;;;;;;;12.70;7.30;;;;;;;-147.86;100.00;-17609.17;106159;1252;73843;-51
2023/12/25 09:41:01;;;;;;;13.60;7.30;;;;;;;-147.86;100.00;-17609.17;106061;1253;64691;-52
2023/12/25 09:43:28;;;;;;;11.20;6.60;;;;;;;-147.86;100.00;-17609.17;106150;1251;72570;-51
2023/12/25 09:45:55;;;;;;;7.70;5.40;;;;;;;-147.86;100.00;-17609.17;106065;1254;60459;-56
2023/12/25 09:48:22;;;;;;;11.30;6.40;;;;;;;-147.86;100.00;-17609.17;106073;1251;60422;-53
2023/12/25 09:50:49;;;;;;;7.60;5.20;;;;;;;-147.86;100.00;-17609.17;106021;1251;72864;-50
2023/12/25 09:53:16;;;;;;;9.70;5.50;;;;;;;-147.86;100.00;-17609.17;106058;1254;65126;-53
2023/12/25 09:55:44;;;;;;;6.60;4.60;;;;;;;-147.86;100.00;-17609.17;105926;1251;72817;-49
2023/12/25 09:58:10;;;;;;;5.00;4.40;;;;;;;-147.86;100.00;-17609.17;105723;1254;61102;-52
2023/12/25 10:00:37;;;;;;;7.00;4.60;;;;;;;-147.86;100.00;-17609.17;105787;1251;60467;-51
2023/12/25 10:03:05;;;;;;;7.70;4.50;;;;;;;-147.86;100.00;-17609.17;105941;1254;73783;-56
2023/12/25 10:05:32;;;;;;;13.90;4.50;;;;;;;-147.86;100.00;-17609.17;106075;1254;65349;-52
2023/12/25 10:07:59;;;;;;;5.60;4.60;;;;;;;-147.86;100.00;-17609.17;106161;1250;72770;-54
2023/12/25 10:10:29;;;;;;;6.40;4.40;;;;;;;-147.86;100.00;-17609.17;106092;1250;61101;-61
2023/12/25 10:13:01;;;;;;;7.30;4.40;;;;;;;-147.86;100.00;-17609.17;105954;1251;60405;-51
2023/12/25 10:15:28;;;;;;;7.70;4.50;;;;;;;-147.86;100.00;-17609.17;106089;1251;75188;-56
2023/12/25 10:18:03;;;;;;;7.40;3.90;;;;;;;-147.86;100.00;-17609.17;106087;1253;64769;-53
2023/12/25 10:20:31;;;;;;;8.20;4.90;;;;;;;-147.86;100.00;-17609.17;106038;1251;72788;-55
2023/12/25 10:22:59;;;;;;;5.50;4.50;;;;;;;-147.86;100.00;-17609.17;106095;1254;61100;-53
2023/12/25 10:25:44;;;;;;;7.40;4.50;;;;;;;-147.86;100.00;-17609.17;106059;1251;60667;-53
2023/12/25 10:28:12;;;;;;;4.90;4.40;;;;;;;-147.86;100.00;-17609.17;106106;1251;73774;-52
2023/12/25 10:30:40;;;;;;;6.20;4.80;;;;;;;-147.86;100.00;-17609.17;106036;1253;64743;-53
2023/12/25 10:33:14;;;;;;;5.20;4.10;;;;;;;-147.86;100.00;-17609.17;106058;1251;72622;-52
2023/12/25 10:35:41;;;;;;;5.10;4.10;;;;;;;-147.86;100.00;-17609.17;106058;1252;61943;-57
2023/12/25 10:38:21;;;;;;;5.30;4.60;;;;;;;-147.86;100.00;-17609.17;106026;1250;61545;-54
2023/12/25 10:40:49;;;;;;;5.00;4.10;;;;;;;-147.86;100.00;-17609.17;106034;1251;74067;-57
2023/12/25 10:43:16;;;;;;;4.30;3.90;;;;;;;-147.86;100.00;-17609.17;106058;1254;64637;-52
2023/12/25 10:45:44;;;;;;;4.40;3.80;;;;;;;-147.86;100.00;-17609.17;106122;1254;74412;-51
2023/12/25 10:48:12;;;;;;;5.40;4.00;;;;;;;-147.86;100.00;-17609.17;105980;1255;60431;-51
2023/12/25 10:50:39;;;;;;;4.80;3.90;;;;;;;-147.86;100.00;-17609.17;106061;1251;60332;-55
2023/12/25 10:53:07;;;;;;;7.60;4.20;;;;;;;-147.86;100.00;-17609.17;106047;1252;73927;-52